Time;durP1;ratioP1;P1;durP2;ratioP2;P2;SDS_P1;SDS_P2;PMS_P1;PMS_P2;Temp;Humidity;BMP_temperature;BMP_pressure;BME280_temperature;BME280_humidity;BME280_pressure;Samples;Min_cycle;Max_cycle;Signal;HPM_P1;HPM_P2
2023/06/16 00:00:19;;;;;;;13.05;9.02;;;;;;;;;;4921968;29;20047;-69
2023/06/16 00:02:45;;;;;;;11.73;9.00;;;;;;;;;;4950123;28;20034;-67
2023/06/16 00:05:12;;;;;;;11.55;8.68;;;;;;;;;;4940875;29;20084;-68
2023/06/16 00:07:39;;;;;;;9.95;8.77;;;;;;;;;;4923941;29;20050;-68
2023/06/16 00:10:08;;;;;;;13.38;9.95;;;;;;;;;;4962653;28;20071;-68
2023/06/16 00:12:52;;;;;;;13.65;10.10;;;;;;;;;;4996139;23;20094;-84
2023/06/16 00:15:29;;;;;;;12.73;9.50;;;;;;;;;;4916373;29;20054;-83
2023/06/16 00:18:29;;;;;;;11.10;9.48;;;;;;;;;;4919851;28;20390;-85
2023/06/16 00:21:27;;;;;;;13.65;10.45;;;;;;;;;;4909794;28;20059;-85
2023/06/16 00:24:05;;;;;;;13.00;9.93;;;;;;;;;;4894952;29;20541;-85
2023/06/16 00:27:00;;;;;;;12.27;8.98;;;;;;;;;;4926248;29;20045;-85
2023/06/16 00:29:53;;;;;;;11.88;9.50;;;;;;;;;;4911300;29;20059;-85
2023/06/16 00:36:08;;;;;;;;;;;;;;;;;;;;;
2023/06/16 00:38:56;;;;;;;11.80;9.23;;;;;;;;;;4902236;29;20043;-86
2023/06/16 00:41:22;;;;;;;11.10;9.43;;;;;;;;;;4919762;23;20036;-59
2023/06/16 00:43:48;;;;;;;11.52;9.07;;;;;;;;;;4968291;28;20126;-59
2023/06/16 00:46:21;;;;;;;12.88;9.00;;;;;;;;;;5091102;23;20184;-68
2023/06/16 00:48:47;;;;;;;12.30;9.43;;;;;;;;;;4952931;28;20075;-68
2023/06/16 00:51:13;;;;;;;11.27;8.77;;;;;;;;;;4936298;29;20049;-68
2023/06/16 00:53:40;;;;;;;12.88;9.65;;;;;;;;;;4923599;29;20402;-68
2023/06/16 00:56:07;;;;;;;12.15;9.25;;;;;;;;;;4934315;29;20099;-68
2023/06/16 00:58:33;;;;;;;11.85;9.32;;;;;;;;;;4916797;29;20047;-68
2023/06/16 01:00:59;;;;;;;13.90;8.35;;;;;;;;;;4927508;29;20103;-68
2023/06/16 01:03:26;;;;;;;11.15;9.05;;;;;;;;;;4934346;29;20043;-68
2023/06/16 01:05:54;;;;;;;11.30;9.85;;;;;;;;;;4937254;29;20043;-68
2023/06/16 01:08:29;;;;;;;13.90;9.65;;;;;;;;;;4940493;29;20406;-68
2023/06/16 01:11:01;;;;;;;13.30;9.30;;;;;;;;;;4922118;29;20050;-68
2023/06/16 01:13:42;;;;;;;15.55;10.52;;;;;;;;;;4921464;29;20043;-68
2023/06/16 01:16:09;;;;;;;13.10;9.82;;;;;;;;;;4929247;29;20090;-68
2023/06/16 01:18:36;;;;;;;13.13;10.07;;;;;;;;;;4935942;29;20044;-68
2023/06/16 01:21:08;;;;;;;12.70;9.63;;;;;;;;;;4935648;29;20073;-68
2023/06/16 01:23:53;;;;;;;12.63;10.50;;;;;;;;;;4937972;29;20047;-68
2023/06/16 01:26:22;;;;;;;;;;;;;;;;;;4918824;29;20127;-68
2023/06/16 01:28:49;;;;;;;11.95;9.40;;;;;;;;;;4937215;29;19919;-67
2023/06/16 01:31:16;;;;;;;13.00;9.88;;;;;;;;;;4947322;29;20093;-68
2023/06/16 01:33:42;;;;;;;14.13;10.93;;;;;;;;;;4925346;29;20043;-68
2023/06/16 01:36:09;;;;;;;12.25;9.15;;;;;;;;;;4945679;29;20429;-68
2023/06/16 01:38:35;;;;;;;11.90;10.32;;;;;;;;;;4928538;29;20075;-68
2023/06/16 01:41:02;;;;;;;14.30;11.38;;;;;;;;;;4947423;29;20071;-68
2023/06/16 01:43:29;;;;;;;13.25;9.98;;;;;;;;;;4925530;29;20055;-68
2023/06/16 01:45:56;;;;;;;12.88;10.65;;;;;;;;;;4946905;29;20269;-68
2023/06/16 01:48:23;;;;;;;13.27;10.95;;;;;;;;;;4953777;23;20043;-57
2023/06/16 01:50:49;;;;;;;12.73;10.43;;;;;;;;;;4947158;28;20039;-58
2023/06/16 01:53:16;;;;;;;13.55;11.20;;;;;;;;;;4952967;28;20047;-57
2023/06/16 01:55:48;;;;;;;12.07;10.10;;;;;;;;;;4945819;28;20050;-56
2023/06/16 01:58:15;;;;;;;13.32;10.45;;;;;;;;;;4928525;29;20050;-59
2023/06/16 02:00:44;;;;;;;12.38;10.50;;;;;;;;;;4930005;29;20485;-57
2023/06/16 02:03:29;;;;;;;13.55;11.10;;;;;;;;;;4942539;28;20513;-58
2023/06/16 02:05:55;;;;;;;13.70;11.13;;;;;;;;;;4926891;28;20058;-57
2023/06/16 02:08:25;;;;;;;12.23;10.57;;;;;;;;;;4951802;28;20042;-57
2023/06/16 02:10:51;;;;;;;13.93;11.95;;;;;;;;;;4927894;28;20062;-58
2023/06/16 02:13:17;;;;;;;13.02;10.80;;;;;;;;;;4951255;28;20078;-56
2023/06/16 02:15:43;;;;;;;13.13;11.10;;;;;;;;;;4944821;28;20040;-57
2023/06/16 02:18:12;;;;;;;14.68;12.25;;;;;;;;;;4948025;28;20094;-57
2023/06/16 02:20:42;;;;;;;15.60;12.68;;;;;;;;;;4946051;28;20472;-56
2023/06/16 02:23:09;;;;;;;16.40;11.73;;;;;;;;;;4944867;28;20122;-58
2023/06/16 02:25:35;;;;;;;15.85;12.40;;;;;;;;;;4948473;28;20378;-56
2023/06/16 02:28:01;;;;;;;14.52;12.43;;;;;;;;;;4937229;28;20043;-57
2023/06/16 02:30:27;;;;;;;13.07;11.10;;;;;;;;;;4956524;28;20043;-58
2023/06/16 02:32:57;;;;;;;16.77;12.98;;;;;;;;;;4945101;28;20517;-57
2023/06/16 02:35:23;;;;;;;15.07;12.98;;;;;;;;;;4954628;28;20086;-58
2023/06/16 02:37:52;;;;;;;14.73;11.93;;;;;;;;;;4946248;28;20126;-60
2023/06/16 02:40:18;;;;;;;14.57;12.50;;;;;;;;;;4933954;29;20075;-58
2023/06/16 02:42:45;;;;;;;15.30;13.68;;;;;;;;;;4928877;29;20051;-60
2023/06/16 02:45:11;;;;;;;15.05;12.38;;;;;;;;;;4937827;28;20043;-59
2023/06/16 02:47:37;;;;;;;14.13;12.18;;;;;;;;;;4954083;28;20133;-59
2023/06/16 02:50:03;;;;;;;15.55;13.13;;;;;;;;;;4936681;28;20161;-58
2023/06/16 02:52:29;;;;;;;18.13;12.68;;;;;;;;;;4965230;23;20055;-56
2023/06/16 02:54:55;;;;;;;16.17;12.60;;;;;;;;;;5002594;23;20085;-67
2023/06/16 02:57:21;;;;;;;14.40;12.25;;;;;;;;;;4956273;28;20093;-67
2023/06/16 02:59:47;;;;;;;16.15;13.50;;;;;;;;;;4961386;28;20051;-67
2023/06/16 03:02:13;;;;;;;15.30;13.50;;;;;;;;;;4953382;28;20034;-67
2023/06/16 03:04:40;;;;;;;16.63;13.55;;;;;;;;;;4942902;28;20049;-67
2023/06/16 03:07:07;;;;;;;18.85;14.15;;;;;;;;;;4952256;28;20424;-66
2023/06/16 03:09:33;;;;;;;17.38;14.70;;;;;;;;;;4957791;28;20047;-67
2023/06/16 03:11:59;;;;;;;19.48;14.48;;;;;;;;;;4955092;28;20440;-67
2023/06/16 03:14:26;;;;;;;16.35;14.60;;;;;;;;;;4950678;28;20035;-67
2023/06/16 03:16:52;;;;;;;15.77;13.80;;;;;;;;;;4965281;28;20047;-67
2023/06/16 03:19:19;;;;;;;16.50;13.98;;;;;;;;;;4946238;28;20272;-66
2023/06/16 03:21:45;;;;;;;20.92;16.42;;;;;;;;;;4970796;28;20038;-66
2023/06/16 03:24:16;;;;;;;16.42;14.45;;;;;;;;;;4964488;28;21096;-69
2023/06/16 03:26:48;;;;;;;17.23;14.82;;;;;;;;;;4950011;28;20051;-67
2023/06/16 03:29:15;;;;;;;16.92;15.13;;;;;;;;;;4965641;28;20125;-67
2023/06/16 03:31:41;;;;;;;17.63;15.05;;;;;;;;;;4966498;28;20035;-67
2023/06/16 03:34:08;;;;;;;18.10;16.02;;;;;;;;;;4966147;28;20408;-67
2023/06/16 03:36:39;;;;;;;20.20;17.27;;;;;;;;;;4962964;28;20035;-67
2023/06/16 03:39:05;;;;;;;20.50;18.27;;;;;;;;;;4953975;28;20047;-67
2023/06/16 03:41:32;;;;;;;22.35;19.95;;;;;;;;;;4952296;28;20366;-67
2023/06/16 03:43:58;;;;;;;24.38;20.85;;;;;;;;;;4968633;28;20039;-67
2023/06/16 03:46:24;;;;;;;23.13;20.10;;;;;;;;;;4951087;28;20046;-67
2023/06/16 03:48:50;;;;;;;23.73;21.23;;;;;;;;;;4952573;28;20461;-67
2023/06/16 03:51:17;;;;;;;24.52;19.67;;;;;;;;;;4965966;28;20046;-67
2023/06/16 03:53:43;;;;;;;21.58;18.83;;;;;;;;;;4962361;28;20063;-67
2023/06/16 03:56:09;;;;;;;24.85;19.50;;;;;;;;;;4959594;28;20412;-67
2023/06/16 03:58:36;;;;;;;21.52;19.30;;;;;;;;;;4947489;28;20047;-67
2023/06/16 04:01:03;;;;;;;21.33;19.02;;;;;;;;;;4970570;28;20190;-67
2023/06/16 04:03:29;;;;;;;24.20;21.38;;;;;;;;;;4944044;28;20046;-66
2023/06/16 04:05:55;;;;;;;23.33;18.98;;;;;;;;;;4939321;28;20043;-67
2023/06/16 04:08:21;;;;;;;28.42;21.45;;;;;;;;;;4950786;28;20050;-67
2023/06/16 04:10:49;;;;;;;23.88;20.75;;;;;;;;;;4964531;28;20042;-67
2023/06/16 04:13:15;;;;;;;27.35;23.40;;;;;;;;;;4964645;28;20043;-67
2023/06/16 04:15:41;;;;;;;24.45;21.77;;;;;;;;;;4961182;28;20079;-69
2023/06/16 04:18:07;;;;;;;24.85;22.15;;;;;;;;;;4967742;28;20061;-67
2023/06/16 04:20:33;;;;;;;25.58;22.73;;;;;;;;;;4962610;28;20043;-67
2023/06/16 04:23:00;;;;;;;24.70;20.35;;;;;;;;;;4961030;28;20508;-67
2023/06/16 04:25:26;;;;;;;25.45;21.65;;;;;;;;;;4945719;28;20220;-67
2023/06/16 04:27:52;;;;;;;24.90;22.25;;;;;;;;;;4962506;28;20045;-67
2023/06/16 04:30:24;;;;;;;27.27;23.27;;;;;;;;;;4967970;28;20396;-67
2023/06/16 04:32:50;;;;;;;26.27;22.00;;;;;;;;;;4945083;28;20509;-67
2023/06/16 04:35:16;;;;;;;25.30;21.10;;;;;;;;;;4963997;28;20131;-67
2023/06/16 04:37:42;;;;;;;21.65;18.20;;;;;;;;;;4957955;28;20090;-67
2023/06/16 04:40:08;;;;;;;23.92;20.27;;;;;;;;;;4971570;28;20035;-67
2023/06/16 04:42:35;;;;;;;23.90;20.55;;;;;;;;;;4944816;28;20039;-67
2023/06/16 04:45:01;;;;;;;21.40;17.95;;;;;;;;;;4971717;28;20066;-67
2023/06/16 04:47:27;;;;;;;22.70;19.67;;;;;;;;;;4965737;28;20547;-67
2023/06/16 04:49:53;;;;;;;20.52;18.27;;;;;;;;;;4964899;28;20050;-67
2023/06/16 04:52:19;;;;;;;20.92;17.98;;;;;;;;;;4965867;28;20086;-66
2023/06/16 04:54:46;;;;;;;22.52;16.58;;;;;;;;;;4963411;28;20518;-66
2023/06/16 04:57:12;;;;;;;19.88;17.10;;;;;;;;;;4962045;28;20126;-67
2023/06/16 04:59:38;;;;;;;21.85;17.77;;;;;;;;;;4960507;28;20042;-66
2023/06/16 05:02:04;;;;;;;19.20;15.65;;;;;;;;;;4963146;28;20039;-66
2023/06/16 05:04:33;;;;;;;18.63;15.98;;;;;;;;;;4962661;28;20038;-66
2023/06/16 05:06:59;;;;;;;22.10;16.65;;;;;;;;;;4957577;28;20038;-66
2023/06/16 05:09:25;;;;;;;18.70;15.75;;;;;;;;;;4962171;28;20046;-65
2023/06/16 05:11:52;;;;;;;17.05;14.05;;;;;;;;;;4966390;28;20050;-66
2023/06/16 05:14:18;;;;;;;17.70;14.32;;;;;;;;;;4965086;28;20046;-67
2023/06/16 05:16:44;;;;;;;20.75;16.27;;;;;;;;;;4967728;28;20122;-67
2023/06/16 05:19:10;;;;;;;18.13;15.90;;;;;;;;;;4967452;28;20069;-67
2023/06/16 05:21:36;;;;;;;20.38;16.88;;;;;;;;;;4964924;28;20045;-67
2023/06/16 05:24:02;;;;;;;20.83;16.20;;;;;;;;;;4938495;28;20401;-68
2023/06/16 05:26:28;;;;;;;17.20;14.27;;;;;;;;;;4968758;28;20043;-68
2023/06/16 05:28:54;;;;;;;21.00;15.73;;;;;;;;;;4952662;28;20436;-68
2023/06/16 05:31:21;;;;;;;18.33;14.60;;;;;;;;;;4952630;28;20035;-68
2023/06/16 05:33:47;;;;;;;17.95;15.70;;;;;;;;;;4970696;28;20518;-68
2023/06/16 05:36:13;;;;;;;20.63;15.73;;;;;;;;;;5049461;23;20047;-67
2023/06/16 05:38:39;;;;;;;19.52;15.82;;;;;;;;;;5014942;23;20047;-86
2023/06/16 05:41:05;;;;;;;20.67;15.65;;;;;;;;;;4939709;28;20071;-86
2023/06/16 05:43:31;;;;;;;17.25;15.25;;;;;;;;;;4944005;29;20534;-85
2023/06/16 05:46:00;;;;;;;18.10;16.15;;;;;;;;;;4926879;29;20133;-85
2023/06/16 05:48:28;;;;;;;17.77;15.30;;;;;;;;;;4912547;29;20570;-85
2023/06/16 05:50:54;;;;;;;16.10;13.35;;;;;;;;;;4923645;29;20083;-86
2023/06/16 05:53:20;;;;;;;18.38;15.07;;;;;;;;;;4925842;29;20043;-85
2023/06/16 05:55:46;;;;;;;18.30;15.50;;;;;;;;;;4910389;29;20039;-85
2023/06/16 05:58:12;;;;;;;19.50;15.55;;;;;;;;;;4926180;29;20578;-83
2023/06/16 06:00:38;;;;;;;18.08;14.38;;;;;;;;;;4928637;29;20039;-84
2023/06/16 06:03:07;;;;;;;19.70;16.00;;;;;;;;;;4941080;29;20047;-85
2023/06/16 06:05:36;;;;;;;17.27;15.43;;;;;;;;;;4936214;29;20069;-83
2023/06/16 06:08:02;;;;;;;21.42;16.02;;;;;;;;;;4985805;23;20051;-57
2023/06/16 06:10:29;;;;;;;18.92;14.65;;;;;;;;;;4985916;28;20081;-56
2023/06/16 06:12:55;;;;;;;17.65;13.65;;;;;;;;;;4938996;28;20034;-56
2023/06/16 06:15:21;;;;;;;17.05;13.90;;;;;;;;;;4946899;28;20046;-57
2023/06/16 06:17:47;;;;;;;14.65;13.13;;;;;;;;;;4968858;28;20038;-57
2023/06/16 06:20:13;;;;;;;15.95;12.52;;;;;;;;;;4970979;28;20081;-56
2023/06/16 06:22:39;;;;;;;15.27;11.50;;;;;;;;;;4937253;28;20167;-56
2023/06/16 06:25:06;;;;;;;15.13;11.93;;;;;;;;;;4946130;28;20190;-56
2023/06/16 06:27:32;;;;;;;14.63;12.05;;;;;;;;;;4971182;28;20039;-56
2023/06/16 06:29:58;;;;;;;14.95;11.32;;;;;;;;;;4970837;28;20039;-57
2023/06/16 06:32:24;;;;;;;14.93;10.98;;;;;;;;;;4971272;28;20049;-57
2023/06/16 06:34:50;;;;;;;12.68;10.60;;;;;;;;;;4953002;28;20050;-57
2023/06/16 06:37:18;;;;;;;12.90;10.10;;;;;;;;;;4945857;28;20070;-57
2023/06/16 06:39:45;;;;;;;14.60;10.80;;;;;;;;;;4970563;28;20200;-57
2023/06/16 06:42:12;;;;;;;14.13;11.15;;;;;;;;;;4947928;28;20043;-57
2023/06/16 06:44:38;;;;;;;14.25;11.65;;;;;;;;;;4971767;28;20047;-57
2023/06/16 06:47:04;;;;;;;14.73;11.02;;;;;;;;;;4961652;28;20043;-57
2023/06/16 06:49:30;;;;;;;13.15;10.15;;;;;;;;;;4954449;28;20049;-57
2023/06/16 06:51:56;;;;;;;13.25;9.45;;;;;;;;;;5030654;23;20044;-57
2023/06/16 06:54:22;;;;;;;17.15;10.70;;;;;;;;;;4947770;28;20097;-57
2023/06/16 06:56:48;;;;;;;14.10;10.90;;;;;;;;;;4951268;28;20127;-56
2023/06/16 06:59:14;;;;;;;15.27;10.43;;;;;;;;;;4951064;28;20122;-57
2023/06/16 07:01:40;;;;;;;12.05;10.02;;;;;;;;;;4950834;28;20131;-56
2023/06/16 07:04:06;;;;;;;14.00;9.90;;;;;;;;;;4958906;28;20074;-56
2023/06/16 07:06:32;;;;;;;12.25;9.75;;;;;;;;;;4936953;28;20031;-56
2023/06/16 07:08:58;;;;;;;14.23;9.85;;;;;;;;;;4953018;28;20037;-57
2023/06/16 07:11:24;;;;;;;13.32;9.15;;;;;;;;;;4944187;28;20505;-57
2023/06/16 07:13:50;;;;;;;10.88;9.05;;;;;;;;;;4954315;28;20524;-56
2023/06/16 07:16:16;;;;;;;11.63;9.48;;;;;;;;;;4929897;28;20075;-57
2023/06/16 07:18:42;;;;;;;11.15;8.80;;;;;;;;;;4959182;28;20031;-56
2023/06/16 07:21:08;;;;;;;11.05;7.65;;;;;;;;;;4939404;29;20055;-56
2023/06/16 07:23:34;;;;;;;11.50;8.15;;;;;;;;;;4945742;28;20417;-56
2023/06/16 07:26:01;;;;;;;11.32;8.38;;;;;;;;;;4980747;23;20046;-56
2023/06/16 07:28:27;;;;;;;12.38;8.77;;;;;;;;;;4968006;23;20043;-55
2023/06/16 07:30:54;;;;;;;10.25;8.27;;;;;;;;;;4954233;29;20035;-55
2023/06/16 07:33:20;;;;;;;9.82;7.47;;;;;;;;;;4954025;28;20054;-55
2023/06/16 07:35:46;;;;;;;10.07;7.43;;;;;;;;;;4937841;29;20031;-55
2023/06/16 07:38:12;;;;;;;11.80;8.68;;;;;;;;;;4954762;29;20051;-55
2023/06/16 07:40:39;;;;;;;10.60;7.22;;;;;;;;;;4955397;29;20401;-56
2023/06/16 07:43:05;;;;;;;10.43;6.43;;;;;;;;;;4954749;28;20500;-57
2023/06/16 07:45:33;;;;;;;7.35;4.88;;;;;;;;;;4954799;28;20475;-56
2023/06/16 07:47:59;;;;;;;10.27;4.72;;;;;;;;;;4954895;29;20039;-55
2023/06/16 07:50:25;;;;;;;7.68;3.92;;;;;;;;;;4953716;28;20050;-55
2023/06/16 07:52:51;;;;;;;7.57;3.28;;;;;;;;;;4953618;28;20035;-55
2023/06/16 07:55:17;;;;;;;6.32;3.03;;;;;;;;;;4936665;29;20508;-55
2023/06/16 07:57:43;;;;;;;6.43;3.40;;;;;;;;;;5005084;23;20070;-87
2023/06/16 08:00:52;;;;;;;;;;;;;;;;;;;;;
2023/06/16 08:03:49;;;;;;;5.28;3.05;;;;;;;;;;4902151;29;20791;-84
2023/06/16 08:09:30;;;;;;;7.60;2.97;;;;;;;;;;4948861;28;20054;-85
2023/06/16 08:12:20;;;;;;;7.18;2.78;;;;;;;;;;4931537;28;20053;-85
2023/06/16 08:15:01;;;;;;;6.82;3.10;;;;;;;;;;4940097;28;20035;-84
2023/06/16 08:17:50;;;;;;;5.72;3.22;;;;;;;;;;4922956;29;20059;-85
2023/06/16 08:20:25;;;;;;;10.18;3.17;;;;;;;;;;4930419;28;20047;-85
2023/06/16 08:23:15;;;;;;;6.05;3.22;;;;;;;;;;4932153;28;20427;-84
2023/06/16 08:25:54;;;;;;;7.47;3.15;;;;;;;;;;4927722;28;20054;-85
2023/06/16 08:31:18;;;;;;;5.90;2.53;;;;;;;;;;5014880;23;20070;-55
2023/06/16 08:33:44;;;;;;;6.78;3.10;;;;;;;;;;4965557;28;20039;-56
2023/06/16 08:36:10;;;;;;;6.68;2.80;;;;;;;;;;4965586;23;20585;-55
2023/06/16 08:38:36;;;;;;;5.40;2.63;;;;;;;;;;4969823;28;20042;-56
2023/06/16 08:41:07;;;;;;;7.30;2.83;;;;;;;;;;4955580;28;20074;-54
2023/06/16 08:43:37;;;;;;;5.80;2.20;;;;;;;;;;4971843;28;20039;-56
2023/06/16 08:46:05;;;;;;;5.65;2.55;;;;;;;;;;4931206;28;20047;-53
2023/06/16 08:48:34;;;;;;;5.68;2.20;;;;;;;;;;4955120;28;20045;-54
2023/06/16 08:51:00;;;;;;;5.88;2.90;;;;;;;;;;4972403;28;20170;-54
2023/06/16 08:53:31;;;;;;;5.38;2.60;;;;;;;;;;4954108;28;20481;-56
2023/06/16 08:55:57;;;;;;;10.05;2.50;;;;;;;;;;4972294;28;20062;-56
2023/06/16 08:58:24;;;;;;;5.30;2.33;;;;;;;;;;4971999;28;20042;-55
2023/06/16 09:00:50;;;;;;;5.00;2.47;;;;;;;;;;4938392;28;20094;-56
2023/06/16 09:03:17;;;;;;;5.47;2.38;;;;;;;;;;4971510;28;20058;-56
2023/06/16 09:05:43;;;;;;;5.30;2.22;;;;;;;;;;4969821;23;20047;-56
2023/06/16 09:08:11;;;;;;;5.32;2.30;;;;;;;;;;4975795;28;20053;-56
2023/06/16 09:10:37;;;;;;;5.85;2.25;;;;;;;;;;4970160;28;20039;-56
2023/06/16 09:13:03;;;;;;;5.25;2.40;;;;;;;;;;4955604;28;20046;-56
2023/06/16 09:15:29;;;;;;;5.97;2.20;;;;;;;;;;4955320;28;20047;-55
2023/06/16 09:17:58;;;;;;;5.18;2.30;;;;;;;;;;4972748;28;20053;-55
2023/06/16 09:20:24;;;;;;;5.43;2.40;;;;;;;;;;4972788;28;20042;-57
2023/06/16 09:22:57;;;;;;;6.45;2.58;;;;;;;;;;4954691;28;20545;-53
2023/06/16 09:25:23;;;;;;;6.57;2.60;;;;;;;;;;4972853;28;20121;-54
2023/06/16 09:27:54;;;;;;;5.05;2.28;;;;;;;;;;4971991;28;20050;-57
2023/06/16 09:30:21;;;;;;;5.75;2.60;;;;;;;;;;4952275;28;20055;-57
2023/06/16 09:32:51;;;;;;;9.95;3.35;;;;;;;;;;4970994;28;20089;-57
2023/06/16 09:35:18;;;;;;;6.05;2.85;;;;;;;;;;4970339;28;20389;-54
2023/06/16 09:37:45;;;;;;;6.68;3.15;;;;;;;;;;4954647;28;20045;-56
2023/06/16 09:40:11;;;;;;;6.38;2.53;;;;;;;;;;4971449;28;20126;-55
2023/06/16 09:42:38;;;;;;;6.20;2.85;;;;;;;;;;4954153;28;20362;-56
2023/06/16 09:45:12;;;;;;;5.35;2.35;;;;;;;;;;4953877;28;20039;-58
2023/06/16 09:47:38;;;;;;;5.38;2.65;;;;;;;;;;4953962;28;20083;-54
2023/06/16 09:50:07;;;;;;;8.90;3.75;;;;;;;;;;4971656;28;20042;-57
2023/06/16 09:52:34;;;;;;;6.85;2.65;;;;;;;;;;4970417;28;22933;-56
2023/06/16 09:55:01;;;;;;;5.35;2.63;;;;;;;;;;4970845;28;20047;-56
2023/06/16 09:57:28;;;;;;;5.00;2.40;;;;;;;;;;4971164;28;20105;-57
2023/06/16 09:59:54;;;;;;;6.72;2.50;;;;;;;;;;4954246;28;20035;-56
2023/06/16 10:02:21;;;;;;;6.18;2.65;;;;;;;;;;4970880;28;20109;-57
2023/06/16 10:04:48;;;;;;;5.97;2.42;;;;;;;;;;4970840;28;20568;-56
2023/06/16 10:07:15;;;;;;;6.32;3.17;;;;;;;;;;4953371;28;20046;-56
2023/06/16 10:09:47;;;;;;;6.90;2.85;;;;;;;;;;4971787;28;20054;-57
2023/06/16 10:12:13;;;;;;;6.00;2.53;;;;;;;;;;4971305;28;20047;-55
2023/06/16 10:14:41;;;;;;;7.70;2.88;;;;;;;;;;4970362;28;20043;-57
2023/06/16 10:17:10;;;;;;;6.00;2.70;;;;;;;;;;4971072;28;20424;-57
2023/06/16 10:19:41;;;;;;;5.38;2.53;;;;;;;;;;4953681;28;20466;-56
2023/06/16 10:22:07;;;;;;;6.32;2.63;;;;;;;;;;4970964;28;20501;-57
2023/06/16 10:24:33;;;;;;;5.60;2.72;;;;;;;;;;4970337;28;20428;-55
2023/06/16 10:27:00;;;;;;;7.47;3.38;;;;;;;;;;4971257;28;20135;-54
2023/06/16 10:29:28;;;;;;;6.20;2.42;;;;;;;;;;4970786;28;20047;-56
2023/06/16 10:32:06;;;;;;;7.47;3.08;;;;;;;;;;4971117;28;20396;-57
2023/06/16 10:34:34;;;;;;;7.00;2.90;;;;;;;;;;4969881;28;20055;-55
2023/06/16 10:37:00;;;;;;;5.82;2.58;;;;;;;;;;4971083;28;20536;-55
2023/06/16 10:39:26;;;;;;;5.57;2.70;;;;;;;;;;4970926;28;20038;-56
2023/06/16 10:42:00;;;;;;;7.68;2.80;;;;;;;;;;4953789;28;20063;-53
2023/06/16 10:44:29;;;;;;;5.15;2.40;;;;;;;;;;4970315;28;20122;-54
2023/06/16 10:47:10;;;;;;;5.18;2.85;;;;;;;;;;4972648;28;20544;-54
2023/06/16 10:49:57;;;;;;;5.10;2.40;;;;;;;;;;4974671;28;20118;-55
2023/06/16 10:52:33;;;;;;;4.90;2.25;;;;;;;;;;4971294;28;20149;-56
2023/06/16 10:55:18;;;;;;;5.38;2.50;;;;;;;;;;4974037;28;20043;-56
2023/06/16 10:57:46;;;;;;;6.35;2.50;;;;;;;;;;4974535;28;20477;-56
2023/06/16 11:00:14;;;;;;;5.25;2.72;;;;;;;;;;4974669;28;20047;-55
2023/06/16 11:02:53;;;;;;;7.15;3.10;;;;;;;;;;4974180;28;20049;-55
2023/06/16 11:05:22;;;;;;;5.00;2.38;;;;;;;;;;4974109;28;20051;-57
2023/06/16 11:08:05;;;;;;;5.18;2.35;;;;;;;;;;4957547;28;20061;-57
2023/06/16 11:10:47;;;;;;;5.25;2.40;;;;;;;;;;4941101;28;20128;-56
2023/06/16 11:13:16;;;;;;;5.22;2.70;;;;;;;;;;4974185;28;20042;-56
2023/06/16 11:15:43;;;;;;;6.20;2.28;;;;;;;;;;4973559;28;20437;-56
2023/06/16 11:18:09;;;;;;;6.80;2.40;;;;;;;;;;4974777;28;20070;-57
2023/06/16 11:20:36;;;;;;;4.80;2.30;;;;;;;;;;4974427;28;20035;-56
2023/06/16 11:23:02;;;;;;;6.13;2.50;;;;;;;;;;4970290;28;20525;-57
2023/06/16 11:25:28;;;;;;;5.15;2.25;;;;;;;;;;4963696;28;20078;-56
2023/06/16 11:27:55;;;;;;;5.47;2.63;;;;;;;;;;4955610;28;20043;-57
2023/06/16 11:30:21;;;;;;;8.32;2.42;;;;;;;;;;4974386;28;20045;-55
2023/06/16 11:32:51;;;;;;;5.25;2.25;;;;;;;;;;4974512;28;20039;-55
2023/06/16 11:35:18;;;;;;;4.35;2.17;;;;;;;;;;4974785;28;20039;-57
2023/06/16 11:37:48;;;;;;;5.40;2.15;;;;;;;;;;4974017;28;20042;-56
2023/06/16 11:40:24;;;;;;;4.55;2.22;;;;;;;;;;4968616;28;20086;-57
2023/06/16 11:42:55;;;;;;;6.13;2.28;;;;;;;;;;4950072;28;20034;-55
2023/06/16 11:45:22;;;;;;;7.38;2.55;;;;;;;;;;4970561;28;20436;-55
2023/06/16 11:47:48;;;;;;;6.00;2.33;;;;;;;;;;4973983;28;20085;-56
2023/06/16 11:50:16;;;;;;;5.88;2.55;;;;;;;;;;4956168;28;20563;-55
2023/06/16 11:52:43;;;;;;;5.50;2.38;;;;;;;;;;4955257;28;20165;-57
2023/06/16 11:55:09;;;;;;;6.00;2.40;;;;;;;;;;4955989;28;20039;-57
2023/06/16 11:57:40;;;;;;;7.20;2.60;;;;;;;;;;4955204;28;20121;-56
2023/06/16 12:00:08;;;;;;;5.15;2.38;;;;;;;;;;4973277;28;20109;-57
2023/06/16 12:02:35;;;;;;;6.32;2.40;;;;;;;;;;4965398;28;20040;-57
2023/06/16 12:05:02;;;;;;;4.93;2.33;;;;;;;;;;4965260;28;20471;-56
2023/06/16 12:07:28;;;;;;;6.18;2.72;;;;;;;;;;4973310;28;20456;-57
2023/06/16 12:09:55;;;;;;;5.38;2.40;;;;;;;;;;4973602;28;20109;-57
2023/06/16 12:12:25;;;;;;;8.05;2.30;;;;;;;;;;4973452;28;20358;-56
2023/06/16 12:14:53;;;;;;;5.15;2.42;;;;;;;;;;4966288;28;20049;-57
2023/06/16 12:17:19;;;;;;;6.10;2.60;;;;;;;;;;4973675;28;20067;-57
2023/06/16 12:19:46;;;;;;;5.32;2.70;;;;;;;;;;4972944;28;20043;-57
2023/06/16 12:22:12;;;;;;;4.45;2.10;;;;;;;;;;4956086;28;20046;-55
2023/06/16 12:24:43;;;;;;;6.68;2.25;;;;;;;;;;4973258;28;20118;-56
2023/06/16 12:27:10;;;;;;;4.93;2.25;;;;;;;;;;4973800;28;20179;-56
2023/06/16 12:29:36;;;;;;;5.15;2.25;;;;;;;;;;4955911;28;20440;-57
2023/06/16 12:32:07;;;;;;;5.70;2.50;;;;;;;;;;4956355;28;20098;-56
2023/06/16 12:34:35;;;;;;;5.85;2.53;;;;;;;;;;4955074;28;20125;-56
2023/06/16 12:37:14;;;;;;;4.90;2.28;;;;;;;;;;4973215;28;20034;-57
2023/06/16 12:39:42;;;;;;;5.63;2.58;;;;;;;;;;4972679;28;20089;-56
2023/06/16 12:42:10;;;;;;;5.78;2.60;;;;;;;;;;4955767;28;20046;-56
2023/06/16 12:45:12;;;;;;;5.43;2.80;;;;;;;;;;4972530;28;20046;-57
2023/06/16 12:47:39;;;;;;;5.53;2.70;;;;;;;;;;4944123;28;20101;-56
2023/06/16 12:50:06;;;;;;;6.13;2.53;;;;;;;;;;4972828;28;20050;-57
2023/06/16 12:52:33;;;;;;;5.90;2.45;;;;;;;;;;4970939;28;20057;-56
2023/06/16 12:55:00;;;;;;;4.95;2.50;;;34.80;1.00;;;;;;4971845;28;20046;-57
2023/06/16 12:57:27;;;;;;;6.50;2.47;;;35.70;1.00;;;;;;4972260;28;20081;-57
2023/06/16 12:59:53;;;;;;;4.70;2.13;;;36.40;1.00;;;;;;4973485;28;20042;-56
2023/06/16 13:02:20;;;;;;;5.47;2.60;;;36.30;1.00;;;;;;4972143;28;20485;-57
2023/06/16 13:04:45;;;;;;;6.72;2.40;;;36.90;1.00;;;;;;4973406;28;20042;-57
2023/06/16 13:07:11;;;;;;;5.40;2.35;;;37.50;1.00;;;;;;4939457;28;20389;-57
2023/06/16 13:09:37;;;;;;;6.63;2.35;;;38.30;1.00;;;;;;4973114;28;20154;-57
2023/06/16 13:12:07;;;;;;;5.53;2.50;;;39.00;1.00;;;;;;4972911;28;20039;-57
2023/06/16 13:14:33;;;;;;;4.72;2.15;;;39.70;1.00;;;;;;4971295;28;20118;-57
2023/06/16 13:16:58;;;;;;;6.40;2.85;;;40.30;1.00;;;;;;4972074;28;20058;-56
2023/06/16 13:19:24;;;;;;;7.20;2.80;;;40.50;1.00;;;;;;4971913;28;20042;-57
2023/06/16 13:21:50;;;;;;;4.90;2.13;;;40.70;1.00;;;;;;4931083;28;20049;-57
2023/06/16 13:24:16;;;;;;;6.05;2.20;;;40.70;1.00;;;;;;4971415;28;20041;-58
2023/06/16 13:26:42;;;;;;;5.25;2.40;;;41.40;1.00;;;;;;4971514;28;20413;-57
2023/06/16 13:29:08;;;;;;;5.28;2.33;;;41.60;99.90;;;;;;4954486;28;20050;-57
2023/06/16 13:31:34;;;;;;;5.30;2.60;;;42.10;99.90;;;;;;4971691;28;20117;-57
2023/06/16 13:34:00;;;;;;;5.20;2.40;;;42.40;99.90;;;;;;4971430;28;20146;-57
2023/06/16 13:36:26;;;;;;;6.15;2.25;;;42.70;99.90;;;;;;4971762;28;20039;-57
2023/06/16 13:38:52;;;;;;;5.68;2.20;;;43.00;99.90;;;;;;4971890;28;20042;-57
2023/06/16 13:41:20;;;;;;;6.35;2.58;;;42.20;99.90;;;;;;4971509;28;20600;-57
2023/06/16 13:43:48;;;;;;;4.55;2.17;;;43.30;99.90;;;;;;4954130;28;20046;-58
2023/06/16 13:46:15;;;;;;;4.05;2.10;;;43.50;99.90;;;;;;4971381;28;20409;-57
2023/06/16 13:48:44;;;;;;;5.60;2.50;;;42.90;99.90;;;;;;4971547;28;20518;-57
2023/06/16 13:51:10;;;;;;;5.70;1.95;;;43.10;99.90;;;;;;4970945;28;20090;-57
2023/06/16 13:53:36;;;;;;;5.05;2.22;;;43.00;99.90;;;;;;4953488;28;20503;-57
2023/06/16 13:56:02;;;;;;;4.47;2.03;;;43.20;99.90;;;;;;4954261;28;20129;-57
2023/06/16 13:58:28;;;;;;;5.93;2.45;;;43.20;99.90;;;;;;4954026;28;20054;-57
2023/06/16 14:00:53;;;;;;;5.90;2.20;;;43.60;99.90;;;;;;4971591;28;20043;-57
2023/06/16 14:03:19;;;;;;;5.20;2.00;;;43.60;99.90;;;;;;4971069;28;20038;-57
2023/06/16 14:05:45;;;;;;;5.28;2.08;;;43.40;99.90;;;;;;4970722;28;20035;-57
2023/06/16 14:08:10;;;;;;;5.13;2.35;;;43.20;99.90;;;;;;4971179;28;20170;-57
2023/06/16 14:10:36;;;;;;;6.18;2.72;;;43.30;99.90;;;;;;4971229;28;20037;-57
2023/06/16 14:13:02;;;;;;;5.70;2.17;;;43.30;99.90;;;;;;4953589;28;20490;-57
2023/06/16 14:15:28;;;;;;;5.70;2.30;;;43.20;99.90;;;;;;4971025;28;20527;-57
2023/06/16 14:17:54;;;;;;;5.50;2.10;;;43.30;99.90;;;;;;4963706;28;20062;-56
2023/06/16 14:20:20;;;;;;;5.28;2.20;;;43.00;99.90;;;;;;4970929;28;20415;-57
2023/06/16 14:22:46;;;;;;;5.00;2.08;;;42.60;99.90;;;;;;4970153;28;20034;-57
2023/06/16 14:25:12;;;;;;;7.47;2.85;;;42.70;99.90;;;;;;4971125;28;20121;-57
2023/06/16 14:27:38;;;;;;;5.47;2.30;;;41.90;99.90;;;;;;4953536;28;20509;-56
2023/06/16 14:30:06;;;;;;;5.65;2.28;;;42.50;99.90;;;;;;4952148;28;20118;-57
2023/06/16 14:32:33;;;;;;;5.00;2.45;;;42.60;99.90;;;;;;4969136;28;20038;-57
2023/06/16 14:34:58;;;;;;;5.45;2.30;;;42.80;99.90;;;;;;4952858;28;20039;-57